sensor_id;sensor_type;location;lat;lon;timestamp;pressure;altitude;pressure_sealevel;temperature
9119;BMP180;4594;50.994;7.126;2023-02-28T00:01:23;101942.00;;;4.00
9119;BMP180;4594;50.994;7.126;2023-02-28T00:03:49;101942.00;;;4.00
9119;BMP180;4594;50.994;7.126;2023-02-28T00:06:15;101930.00;;;4.00
9119;BMP180;4594;50.994;7.126;2023-02-28T00:08:41;101940.00;;;4.00
9119;BMP180;4594;50.994;7.126;2023-02-28T00:11:12;101938.00;;;4.00
9119;BMP180;4594;50.994;7.126;2023-02-28T00:13:42;101939.00;;;4.00
9119;BMP180;4594;50.994;7.126;2023-02-28T00:16:12;101938.00;;;4.00
9119;BMP180;4594;50.994;7.126;2023-02-28T00:18:39;101923.00;;;4.00
9119;BMP180;4594;50.994;7.126;2023-02-28T00:21:05;101925.00;;;4.00
9119;BMP180;4594;50.994;7.126;2023-02-28T00:23:31;101937.00;;;4.00
9119;BMP180;4594;50.994;7.126;2023-02-28T00:25:57;101937.00;;;4.00
9119;BMP180;4594;50.994;7.126;2023-02-28T00:28:23;101932.00;;;4.00
9119;BMP180;4594;50.994;7.126;2023-02-28T00:30:49;101932.00;;;4.10
9119;BMP180;4594;50.994;7.126;2023-02-28T00:33:16;101929.00;;;4.10
9119;BMP180;4594;50.994;7.126;2023-02-28T00:35:42;101934.00;;;4.10
9119;BMP180;4594;50.994;7.126;2023-02-28T00:38:08;101934.00;;;4.20
9119;BMP180;4594;50.994;7.126;2023-02-28T00:40:33;101945.00;;;4.20
9119;BMP180;4594;50.994;7.126;2023-02-28T00:42:59;101941.00;;;4.20
9119;BMP180;4594;50.994;7.126;2023-02-28T00:45:25;101927.00;;;4.20
9119;BMP180;4594;50.994;7.126;2023-02-28T00:47:50;101938.00;;;4.20
9119;BMP180;4594;50.994;7.126;2023-02-28T01:27:43;101944.00;;;4.40
9119;BMP180;4594;50.994;7.126;2023-02-28T01:30:10;101939.00;;;4.40
9119;BMP180;4594;50.994;7.126;2023-02-28T01:32:36;101926.00;;;4.40
9119;BMP180;4594;50.994;7.126;2023-02-28T01:35:02;101933.00;;;4.30
9119;BMP180;4594;50.994;7.126;2023-02-28T01:37:27;101916.00;;;4.40
9119;BMP180;4594;50.994;7.126;2023-02-28T01:39:53;101930.00;;;4.40
9119;BMP180;4594;50.994;7.126;2023-02-28T01:42:19;101920.00;;;4.40
9119;BMP180;4594;50.994;7.126;2023-02-28T01:45:03;101931.00;;;4.40
9119;BMP180;4594;50.994;7.126;2023-02-28T01:47:39;101921.00;;;4.30
9119;BMP180;4594;50.994;7.126;2023-02-28T01:50:14;101927.00;;;4.30
9119;BMP180;4594;50.994;7.126;2023-02-28T01:52:42;101907.00;;;4.30
9119;BMP180;4594;50.994;7.126;2023-02-28T01:55:10;101921.00;;;4.30
9119;BMP180;4594;50.994;7.126;2023-02-28T01:57:46;101919.00;;;4.30
9119;BMP180;4594;50.994;7.126;2023-02-28T02:00:17;101914.00;;;4.30
9119;BMP180;4594;50.994;7.126;2023-02-28T02:02:47;101919.00;;;4.30
9119;BMP180;4594;50.994;7.126;2023-02-28T02:05:22;101913.00;;;4.30
9119;BMP180;4594;50.994;7.126;2023-02-28T02:07:53;101910.00;;;4.30
9119;BMP180;4594;50.994;7.126;2023-02-28T02:10:28;101899.00;;;4.30
9119;BMP180;4594;50.994;7.126;2023-02-28T02:13:13;101907.00;;;4.20
9119;BMP180;4594;50.994;7.126;2023-02-28T02:18:49;101907.00;;;4.20
9119;BMP180;4594;50.994;7.126;2023-02-28T02:24:57;101897.00;;;4.10
9119;BMP180;4594;50.994;7.126;2023-02-28T02:28:11;101889.00;;;4.10
9119;BMP180;4594;50.994;7.126;2023-02-28T02:31:06;101873.00;;;4.00
9119;BMP180;4594;50.994;7.126;2023-02-28T02:37:15;101886.00;;;4.00
9119;BMP180;4594;50.994;7.126;2023-02-28T02:40:27;101884.00;;;4.00
9119;BMP180;4594;50.994;7.126;2023-02-28T02:43:24;101892.00;;;4.00
9119;BMP180;4594;50.994;7.126;2023-02-28T02:46:03;101892.00;;;4.00
9119;BMP180;4594;50.994;7.126;2023-02-28T02:48:34;101888.00;;;4.00
9119;BMP180;4594;50.994;7.126;2023-02-28T02:51:07;101886.00;;;4.10
9119;BMP180;4594;50.994;7.126;2023-02-28T02:53:47;101885.00;;;4.10
9119;BMP180;4594;50.994;7.126;2023-02-28T02:56:19;101883.00;;;4.10
9119;BMP180;4594;50.994;7.126;2023-02-28T02:58:49;101895.00;;;4.10
9119;BMP180;4594;50.994;7.126;2023-02-28T03:01:21;101871.00;;;4.10
9119;BMP180;4594;50.994;7.126;2023-02-28T03:03:59;101892.00;;;4.20
9119;BMP180;4594;50.994;7.126;2023-02-28T03:06:26;101890.00;;;4.20
9119;BMP180;4594;50.994;7.126;2023-02-28T03:08:53;101872.00;;;4.20
9119;BMP180;4594;50.994;7.126;2023-02-28T03:11:20;101886.00;;;4.20
9119;BMP180;4594;50.994;7.126;2023-02-28T03:19:37;101886.00;;;4.10
9119;BMP180;4594;50.994;7.126;2023-02-28T03:22:39;101878.00;;;4.10
9119;BMP180;4594;50.994;7.126;2023-02-28T03:25:59;101879.00;;;4.10
9119;BMP180;4594;50.994;7.126;2023-02-28T03:28:47;101874.00;;;4.00
9119;BMP180;4594;50.994;7.126;2023-02-28T03:31:40;101883.00;;;4.00
9119;BMP180;4594;50.994;7.126;2023-02-28T03:34:13;101886.00;;;4.00
9119;BMP180;4594;50.994;7.126;2023-02-28T03:36:57;101869.00;;;4.00
9119;BMP180;4594;50.994;7.126;2023-02-28T03:39:39;101870.00;;;4.00
9119;BMP180;4594;50.994;7.126;2023-02-28T03:42:13;101884.00;;;4.00
9119;BMP180;4594;50.994;7.126;2023-02-28T03:44:46;101871.00;;;4.00
9119;BMP180;4594;50.994;7.126;2023-02-28T03:47:21;101877.00;;;4.00
9119;BMP180;4594;50.994;7.126;2023-02-28T03:50:51;101876.00;;;4.00
9119;BMP180;4594;50.994;7.126;2023-02-28T03:53:35;101886.00;;;3.90
9119;BMP180;4594;50.994;7.126;2023-02-28T03:56:24;101882.00;;;4.00
9119;BMP180;4594;50.994;7.126;2023-02-28T03:59:12;101874.00;;;3.90
9119;BMP180;4594;50.994;7.126;2023-02-28T04:01:43;101882.00;;;3.90
9119;BMP180;4594;50.994;7.126;2023-02-28T04:04:10;101889.00;;;3.90
9119;BMP180;4594;50.994;7.126;2023-02-28T04:06:37;101885.00;;;3.90
9119;BMP180;4594;50.994;7.126;2023-02-28T04:09:06;101896.00;;;3.90
9119;BMP180;4594;50.994;7.126;2023-02-28T04:11:44;101888.00;;;3.90
9119;BMP180;4594;50.994;7.126;2023-02-28T04:14:11;101882.00;;;3.90
9119;BMP180;4594;50.994;7.126;2023-02-28T04:16:40;101881.00;;;3.90
9119;BMP180;4594;50.994;7.126;2023-02-28T04:19:09;101900.00;;;3.90
9119;BMP180;4594;50.994;7.126;2023-02-28T04:21:39;101892.00;;;3.90
9119;BMP180;4594;50.994;7.126;2023-02-28T04:24:06;101895.00;;;3.90
9119;BMP180;4594;50.994;7.126;2023-02-28T04:26:35;101895.00;;;3.90
9119;BMP180;4594;50.994;7.126;2023-02-28T04:29:04;101894.00;;;3.90
9119;BMP180;4594;50.994;7.126;2023-02-28T04:31:30;101900.00;;;3.80
9119;BMP180;4594;50.994;7.126;2023-02-28T04:33:56;101898.00;;;3.80
9119;BMP180;4594;50.994;7.126;2023-02-28T04:36:22;101905.00;;;3.90
9119;BMP180;4594;50.994;7.126;2023-02-28T04:38:49;101903.00;;;3.80
9119;BMP180;4594;50.994;7.126;2023-02-28T04:41:16;101912.00;;;3.80
9119;BMP180;4594;50.994;7.126;2023-02-28T04:43:42;101914.00;;;3.80
9119;BMP180;4594;50.994;7.126;2023-02-28T04:46:09;101911.00;;;3.80
9119;BMP180;4594;50.994;7.126;2023-02-28T04:48:38;101912.00;;;3.80
9119;BMP180;4594;50.994;7.126;2023-02-28T04:51:08;101914.00;;;3.80
9119;BMP180;4594;50.994;7.126;2023-02-28T04:53:35;101914.00;;;3.80
9119;BMP180;4594;50.994;7.126;2023-02-28T04:56:02;101911.00;;;3.80
9119;BMP180;4594;50.994;7.126;2023-02-28T04:58:28;101905.00;;;3.80
9119;BMP180;4594;50.994;7.126;2023-02-28T05:01:06;101914.00;;;3.70
9119;BMP180;4594;50.994;7.126;2023-02-28T05:03:42;101926.00;;;3.70
9119;BMP180;4594;50.994;7.126;2023-02-28T05:06:09;101936.00;;;3.70
9119;BMP180;4594;50.994;7.126;2023-02-28T05:08:35;101912.00;;;3.70
9119;BMP180;4594;50.994;7.126;2023-02-28T05:11:02;101931.00;;;3.70
9119;BMP180;4594;50.994;7.126;2023-02-28T05:13:29;101931.00;;;3.70
9119;BMP180;4594;50.994;7.126;2023-02-28T05:15:55;101936.00;;;3.70
9119;BMP180;4594;50.994;7.126;2023-02-28T05:18:22;101930.00;;;3.70
9119;BMP180;4594;50.994;7.126;2023-02-28T05:20:47;101930.00;;;3.70
9119;BMP180;4594;50.994;7.126;2023-02-28T05:23:14;101927.00;;;3.70
9119;BMP180;4594;50.994;7.126;2023-02-28T05:25:41;101927.00;;;3.70
9119;BMP180;4594;50.994;7.126;2023-02-28T05:28:07;101920.00;;;3.70
9119;BMP180;4594;50.994;7.126;2023-02-28T05:30:33;101924.00;;;3.70
9119;BMP180;4594;50.994;7.126;2023-02-28T05:32:59;101924.00;;;3.70
9119;BMP180;4594;50.994;7.126;2023-02-28T05:35:26;101927.00;;;3.70
9119;BMP180;4594;50.994;7.126;2023-02-28T05:37:51;101919.00;;;3.70
9119;BMP180;4594;50.994;7.126;2023-02-28T05:40:18;101923.00;;;3.70
9119;BMP180;4594;50.994;7.126;2023-02-28T05:42:46;101927.00;;;3.70
9119;BMP180;4594;50.994;7.126;2023-02-28T05:45:12;101915.00;;;3.70
9119;BMP180;4594;50.994;7.126;2023-02-28T05:47:38;101925.00;;;3.70
9119;BMP180;4594;50.994;7.126;2023-02-28T05:50:05;101924.00;;;3.70
9119;BMP180;4594;50.994;7.126;2023-02-28T05:52:31;101924.00;;;3.70
9119;BMP180;4594;50.994;7.126;2023-02-28T05:54:57;101910.00;;;3.60
9119;BMP180;4594;50.994;7.126;2023-02-28T05:57:23;101925.00;;;3.60
9119;BMP180;4594;50.994;7.126;2023-02-28T05:59:49;101921.00;;;3.60
9119;BMP180;4594;50.994;7.126;2023-02-28T06:02:17;101914.00;;;3.60
9119;BMP180;4594;50.994;7.126;2023-02-28T06:04:44;101923.00;;;3.60
9119;BMP180;4594;50.994;7.126;2023-02-28T06:07:10;101901.00;;;3.60
9119;BMP180;4594;50.994;7.126;2023-02-28T06:09:37;101919.00;;;3.70
9119;BMP180;4594;50.994;7.126;2023-02-28T06:12:05;101927.00;;;3.70
9119;BMP180;4594;50.994;7.126;2023-02-28T06:14:33;101918.00;;;3.70
9119;BMP180;4594;50.994;7.126;2023-02-28T06:17:00;101931.00;;;3.80
9119;BMP180;4594;50.994;7.126;2023-02-28T06:19:26;101909.00;;;3.80
9119;BMP180;4594;50.994;7.126;2023-02-28T06:21:54;101934.00;;;3.80
9119;BMP180;4594;50.994;7.126;2023-02-28T06:24:25;101943.00;;;3.80
9119;BMP180;4594;50.994;7.126;2023-02-28T06:26:53;101940.00;;;3.80
9119;BMP180;4594;50.994;7.126;2023-02-28T06:29:19;101945.00;;;3.80
9119;BMP180;4594;50.994;7.126;2023-02-28T06:31:46;101947.00;;;3.90
9119;BMP180;4594;50.994;7.126;2023-02-28T06:34:13;101938.00;;;3.90
9119;BMP180;4594;50.994;7.126;2023-02-28T06:36:41;101931.00;;;3.90
9119;BMP180;4594;50.994;7.126;2023-02-28T06:39:08;101952.00;;;3.90
9119;BMP180;4594;50.994;7.126;2023-02-28T06:41:34;101961.00;;;3.90
9119;BMP180;4594;50.994;7.126;2023-02-28T06:44:12;101958.00;;;4.00
9119;BMP180;4594;50.994;7.126;2023-02-28T06:46:40;101964.00;;;4.10
9119;BMP180;4594;50.994;7.126;2023-02-28T06:49:06;101952.00;;;4.30
9119;BMP180;4594;50.994;7.126;2023-02-28T06:51:36;101970.00;;;4.60
9119;BMP180;4594;50.994;7.126;2023-02-28T06:54:02;101971.00;;;4.90
9119;BMP180;4594;50.994;7.126;2023-02-28T06:56:28;101973.00;;;5.20
9119;BMP180;4594;50.994;7.126;2023-02-28T06:58:54;101966.00;;;5.50
9119;BMP180;4594;50.994;7.126;2023-02-28T07:01:20;101973.00;;;5.90
9119;BMP180;4594;50.994;7.126;2023-02-28T07:03:48;101983.00;;;6.30
9119;BMP180;4594;50.994;7.126;2023-02-28T07:06:20;101977.00;;;6.80
9119;BMP180;4594;50.994;7.126;2023-02-28T07:08:49;101974.00;;;7.20
9119;BMP180;4594;50.994;7.126;2023-02-28T07:11:15;101981.00;;;7.70
9119;BMP180;4594;50.994;7.126;2023-02-28T07:13:41;101992.00;;;8.10
9119;BMP180;4594;50.994;7.126;2023-02-28T07:16:10;101988.00;;;8.50
9119;BMP180;4594;50.994;7.126;2023-02-28T07:18:37;101988.00;;;8.90
9119;BMP180;4594;50.994;7.126;2023-02-28T07:21:06;101991.00;;;9.30
9119;BMP180;4594;50.994;7.126;2023-02-28T07:23:32;101978.00;;;9.60
9119;BMP180;4594;50.994;7.126;2023-02-28T07:25:58;102002.00;;;9.90
9119;BMP180;4594;50.994;7.126;2023-02-28T07:28:24;101974.00;;;10.20
9119;BMP180;4594;50.994;7.126;2023-02-28T07:30:50;101997.00;;;10.70
9119;BMP180;4594;50.994;7.126;2023-02-28T07:33:16;101993.00;;;11.10
9119;BMP180;4594;50.994;7.126;2023-02-28T07:35:42;102000.00;;;11.50
9119;BMP180;4594;50.994;7.126;2023-02-28T07:38:08;101999.00;;;12.00
9119;BMP180;4594;50.994;7.126;2023-02-28T07:40:35;101995.00;;;12.40
9119;BMP180;4594;50.994;7.126;2023-02-28T07:43:02;101988.00;;;12.80
9119;BMP180;4594;50.994;7.126;2023-02-28T07:45:29;102010.00;;;13.30
9119;BMP180;4594;50.994;7.126;2023-02-28T07:47:55;102006.00;;;13.50
9119;BMP180;4594;50.994;7.126;2023-02-28T07:50:21;102003.00;;;13.70
9119;BMP180;4594;50.994;7.126;2023-02-28T07:52:47;101996.00;;;13.80
9119;BMP180;4594;50.994;7.126;2023-02-28T07:55:13;102013.00;;;14.00
9119;BMP180;4594;50.994;7.126;2023-02-28T07:57:40;102011.00;;;14.10
9119;BMP180;4594;50.994;7.126;2023-02-28T08:00:09;102008.00;;;14.30
9119;BMP180;4594;50.994;7.126;2023-02-28T08:02:36;102012.00;;;14.60
9119;BMP180;4594;50.994;7.126;2023-02-28T08:05:02;102008.00;;;15.00
9119;BMP180;4594;50.994;7.126;2023-02-28T08:07:28;102021.00;;;15.40
9119;BMP180;4594;50.994;7.126;2023-02-28T08:09:53;102011.00;;;15.80
9119;BMP180;4594;50.994;7.126;2023-02-28T08:12:19;102008.00;;;16.10
9119;BMP180;4594;50.994;7.126;2023-02-28T08:14:45;101999.00;;;16.30
9119;BMP180;4594;50.994;7.126;2023-02-28T08:17:11;102014.00;;;16.50
9119;BMP180;4594;50.994;7.126;2023-02-28T08:19:37;102001.00;;;16.90
9119;BMP180;4594;50.994;7.126;2023-02-28T08:22:03;102010.00;;;17.20
9119;BMP180;4594;50.994;7.126;2023-02-28T08:24:29;102017.00;;;17.60
9119;BMP180;4594;50.994;7.126;2023-02-28T08:26:55;102026.00;;;18.00
9119;BMP180;4594;50.994;7.126;2023-02-28T08:29:21;102014.00;;;18.30
9119;BMP180;4594;50.994;7.126;2023-02-28T08:31:47;102019.00;;;18.70
9119;BMP180;4594;50.994;7.126;2023-02-28T08:34:15;102011.00;;;19.10
9119;BMP180;4594;50.994;7.126;2023-02-28T08:36:41;102020.00;;;19.70
9119;BMP180;4594;50.994;7.126;2023-02-28T08:39:10;102018.00;;;20.20
9119;BMP180;4594;50.994;7.126;2023-02-28T08:41:36;102019.00;;;20.70
9119;BMP180;4594;50.994;7.126;2023-02-28T08:44:03;102015.00;;;21.10
9119;BMP180;4594;50.994;7.126;2023-02-28T08:46:29;102022.00;;;21.60
9119;BMP180;4594;50.994;7.126;2023-02-28T08:48:56;102011.00;;;22.10
9119;BMP180;4594;50.994;7.126;2023-02-28T08:51:28;102013.00;;;22.30
9119;BMP180;4594;50.994;7.126;2023-02-28T08:53:57;102027.00;;;22.50
9119;BMP180;4594;50.994;7.126;2023-02-28T08:56:24;102021.00;;;22.90
9119;BMP180;4594;50.994;7.126;2023-02-28T08:58:50;102019.00;;;23.20
9119;BMP180;4594;50.994;7.126;2023-02-28T09:01:20;102023.00;;;23.50
9119;BMP180;4594;50.994;7.126;2023-02-28T09:03:48;102035.00;;;23.70
9119;BMP180;4594;50.994;7.126;2023-02-28T09:06:17;102014.00;;;23.80
9119;BMP180;4594;50.994;7.126;2023-02-28T09:08:43;102014.00;;;24.00
9119;BMP180;4594;50.994;7.126;2023-02-28T09:11:10;102025.00;;;24.20
9119;BMP180;4594;50.994;7.126;2023-02-28T09:13:38;102016.00;;;24.60
9119;BMP180;4594;50.994;7.126;2023-02-28T09:16:07;102020.00;;;25.00
9119;BMP180;4594;50.994;7.126;2023-02-28T09:18:35;102018.00;;;25.00
9119;BMP180;4594;50.994;7.126;2023-02-28T09:21:06;102029.00;;;25.00
9119;BMP180;4594;50.994;7.126;2023-02-28T09:23:32;102018.00;;;25.00
9119;BMP180;4594;50.994;7.126;2023-02-28T09:25:58;102022.00;;;24.80
9119;BMP180;4594;50.994;7.126;2023-02-28T09:28:24;102030.00;;;24.80
9119;BMP180;4594;50.994;7.126;2023-02-28T09:30:53;102010.00;;;24.70
9119;BMP180;4594;50.994;7.126;2023-02-28T09:33:20;102013.00;;;24.80
9119;BMP180;4594;50.994;7.126;2023-02-28T09:35:50;102008.00;;;24.80
9119;BMP180;4594;50.994;7.126;2023-02-28T09:38:17;102023.00;;;24.70
9119;BMP180;4594;50.994;7.126;2023-02-28T09:40:53;102010.00;;;24.80
9119;BMP180;4594;50.994;7.126;2023-02-28T09:43:25;102005.00;;;25.00
9119;BMP180;4594;50.994;7.126;2023-02-28T09:48:54;102004.00;;;25.00
9119;BMP180;4594;50.994;7.126;2023-02-28T09:54:05;102003.00;;;25.20
9119;BMP180;4594;50.994;7.126;2023-02-28T09:56:41;102006.00;;;25.30
9119;BMP180;4594;50.994;7.126;2023-02-28T09:59:19;102017.00;;;25.50
9119;BMP180;4594;50.994;7.126;2023-02-28T10:02:04;102015.00;;;25.70
9119;BMP180;4594;50.994;7.126;2023-02-28T10:04:56;102007.00;;;25.90
9119;BMP180;4594;50.994;7.126;2023-02-28T10:07:58;102015.00;;;26.10
9119;BMP180;4594;50.994;7.126;2023-02-28T10:10:33;102015.00;;;26.50
9119;BMP180;4594;50.994;7.126;2023-02-28T10:13:05;102001.00;;;26.80
9119;BMP180;4594;50.994;7.126;2023-02-28T10:15:33;102006.00;;;27.00
9119;BMP180;4594;50.994;7.126;2023-02-28T10:18:05;102014.00;;;27.40
9119;BMP180;4594;50.994;7.126;2023-02-28T10:20:38;102005.00;;;27.60
9119;BMP180;4594;50.994;7.126;2023-02-28T10:23:28;102003.00;;;27.60
9119;BMP180;4594;50.994;7.126;2023-02-28T10:26:16;102004.00;;;27.70
9119;BMP180;4594;50.994;7.126;2023-02-28T10:28:43;102004.00;;;27.70
9119;BMP180;4594;50.994;7.126;2023-02-28T10:31:20;102010.00;;;27.60
9119;BMP180;4594;50.994;7.126;2023-02-28T10:33:47;102011.00;;;27.60
9119;BMP180;4594;50.994;7.126;2023-02-28T10:36:19;102014.00;;;27.60
9119;BMP180;4594;50.994;7.126;2023-02-28T10:38:47;102006.00;;;27.50
9119;BMP180;4594;50.994;7.126;2023-02-28T10:41:27;102002.00;;;27.50
9119;BMP180;4594;50.994;7.126;2023-02-28T10:44:13;102008.00;;;27.20
9119;BMP180;4594;50.994;7.126;2023-02-28T10:46:41;101988.00;;;27.00
9119;BMP180;4594;50.994;7.126;2023-02-28T10:49:20;101994.00;;;26.90
9119;BMP180;4594;50.994;7.126;2023-02-28T10:51:54;101999.00;;;26.60
9119;BMP180;4594;50.994;7.126;2023-02-28T10:54:35;102018.00;;;25.50
9119;BMP180;4594;50.994;7.126;2023-02-28T10:57:23;102009.00;;;24.00
9119;BMP180;4594;50.994;7.126;2023-02-28T11:00:15;101999.00;;;22.50
9119;BMP180;4594;50.994;7.126;2023-02-28T11:02:41;101988.00;;;21.50
9119;BMP180;4594;50.994;7.126;2023-02-28T11:05:31;101976.00;;;20.50
9119;BMP180;4594;50.994;7.126;2023-02-28T11:08:15;101993.00;;;19.60
9119;BMP180;4594;50.994;7.126;2023-02-28T11:10:47;101993.00;;;19.00
9119;BMP180;4594;50.994;7.126;2023-02-28T11:13:35;101973.00;;;18.30
9119;BMP180;4594;50.994;7.126;2023-02-28T11:16:07;101978.00;;;17.70
9119;BMP180;4594;50.994;7.126;2023-02-28T11:18:52;101981.00;;;17.00
9119;BMP180;4594;50.994;7.126;2023-02-28T11:21:32;101973.00;;;16.40
9119;BMP180;4594;50.994;7.126;2023-02-28T11:24:31;101984.00;;;15.80
9119;BMP180;4594;50.994;7.126;2023-02-28T11:26:59;101979.00;;;15.40
9119;BMP180;4594;50.994;7.126;2023-02-28T11:29:32;101965.00;;;15.10
9119;BMP180;4594;50.994;7.126;2023-02-28T11:32:03;101975.00;;;14.70
9119;BMP180;4594;50.994;7.126;2023-02-28T11:34:30;101959.00;;;14.30
9119;BMP180;4594;50.994;7.126;2023-02-28T11:36:59;101968.00;;;14.00
9119;BMP180;4594;50.994;7.126;2023-02-28T11:39:26;101982.00;;;13.70
9119;BMP180;4594;50.994;7.126;2023-02-28T11:42:44;101986.00;;;13.30
9119;BMP180;4594;50.994;7.126;2023-02-28T11:48:23;101940.00;;;12.70
9119;BMP180;4594;50.994;7.126;2023-02-28T11:51:12;101957.00;;;12.50
9119;BMP180;4594;50.994;7.126;2023-02-28T11:56:46;101965.00;;;12.10
9119;BMP180;4594;50.994;7.126;2023-02-28T12:05:39;101965.00;;;11.70
9119;BMP180;4594;50.994;7.126;2023-02-28T12:08:42;101962.00;;;11.60
9119;BMP180;4594;50.994;7.126;2023-02-28T12:11:25;101972.00;;;11.60
9119;BMP180;4594;50.994;7.126;2023-02-28T12:14:25;101977.00;;;11.40
9119;BMP180;4594;50.994;7.126;2023-02-28T12:20:17;101961.00;;;11.20
9119;BMP180;4594;50.994;7.126;2023-02-28T12:26:30;101969.00;;;11.00
9119;BMP180;4594;50.994;7.126;2023-02-28T12:31:56;101951.00;;;10.80
9119;BMP180;4594;50.994;7.126;2023-02-28T12:34:56;101938.00;;;10.80
9119;BMP180;4594;50.994;7.126;2023-02-28T12:37:53;101925.00;;;10.70
9119;BMP180;4594;50.994;7.126;2023-02-28T12:40:25;101931.00;;;10.60
9119;BMP180;4594;50.994;7.126;2023-02-28T12:42:59;101924.00;;;10.60
9119;BMP180;4594;50.994;7.126;2023-02-28T12:45:53;101918.00;;;10.60
9119;BMP180;4594;50.994;7.126;2023-02-28T12:48:42;101929.00;;;10.60
9119;BMP180;4594;50.994;7.126;2023-02-28T12:51:09;101909.00;;;10.50
9119;BMP180;4594;50.994;7.126;2023-02-28T12:54:25;101907.00;;;10.40
9119;BMP180;4594;50.994;7.126;2023-02-28T12:57:08;101899.00;;;10.40
9119;BMP180;4594;50.994;7.126;2023-02-28T12:59:49;101904.00;;;10.40
9119;BMP180;4594;50.994;7.126;2023-02-28T13:03:11;101904.00;;;10.50
9119;BMP180;4594;50.994;7.126;2023-02-28T13:09:00;101893.00;;;10.30
9119;BMP180;4594;50.994;7.126;2023-02-28T13:11:43;101887.00;;;10.30
9119;BMP180;4594;50.994;7.126;2023-02-28T13:14:35;101882.00;;;10.30
9119;BMP180;4594;50.994;7.126;2023-02-28T13:19:59;101890.00;;;10.40
9119;BMP180;4594;50.994;7.126;2023-02-28T13:24:53;101871.00;;;10.40
9119;BMP180;4594;50.994;7.126;2023-02-28T13:27:41;101880.00;;;10.50
9119;BMP180;4594;50.994;7.126;2023-02-28T13:51:51;101849.00;;;10.60
9119;BMP180;4594;50.994;7.126;2023-02-28T13:57:34;101852.00;;;10.70
9119;BMP180;4594;50.994;7.126;2023-02-28T14:00:45;101856.00;;;10.70
9119;BMP180;4594;50.994;7.126;2023-02-28T14:03:41;101877.00;;;10.70
9119;BMP180;4594;50.994;7.126;2023-02-28T14:06:21;101852.00;;;10.70
9119;BMP180;4594;50.994;7.126;2023-02-28T14:09:30;101841.00;;;10.70
9119;BMP180;4594;50.994;7.126;2023-02-28T14:11:58;101831.00;;;10.70
9119;BMP180;4594;50.994;7.126;2023-02-28T14:17:17;101842.00;;;10.70
9119;BMP180;4594;50.994;7.126;2023-02-28T14:19:47;101827.00;;;10.70
9119;BMP180;4594;50.994;7.126;2023-02-28T14:22:55;101839.00;;;10.70
9119;BMP180;4594;50.994;7.126;2023-02-28T14:25:42;101828.00;;;10.70
9119;BMP180;4594;50.994;7.126;2023-02-28T14:28:39;101832.00;;;10.70
9119;BMP180;4594;50.994;7.126;2023-02-28T14:31:15;101827.00;;;10.70
9119;BMP180;4594;50.994;7.126;2023-02-28T14:34:13;101830.00;;;10.70
9119;BMP180;4594;50.994;7.126;2023-02-28T14:36:43;101827.00;;;10.70
9119;BMP180;4594;50.994;7.126;2023-02-28T14:39:22;101828.00;;;10.70
9119;BMP180;4594;50.994;7.126;2023-02-28T14:41:50;101828.00;;;10.70
9119;BMP180;4594;50.994;7.126;2023-02-28T14:44:22;101823.00;;;10.70
9119;BMP180;4594;50.994;7.126;2023-02-28T14:46:58;101831.00;;;10.70
9119;BMP180;4594;50.994;7.126;2023-02-28T14:49:42;101822.00;;;10.70
9119;BMP180;4594;50.994;7.126;2023-02-28T14:52:21;101834.00;;;10.70
9119;BMP180;4594;50.994;7.126;2023-02-28T14:54:55;101827.00;;;10.70
9119;BMP180;4594;50.994;7.126;2023-02-28T14:57:31;101831.00;;;10.70
9119;BMP180;4594;50.994;7.126;2023-02-28T15:00:14;101826.00;;;10.70
9119;BMP180;4594;50.994;7.126;2023-02-28T15:02:43;101819.00;;;10.60
9119;BMP180;4594;50.994;7.126;2023-02-28T15:07:44;101798.00;;;10.70
9119;BMP180;4594;50.994;7.126;2023-02-28T15:10:43;101807.00;;;10.70
9119;BMP180;4594;50.994;7.126;2023-02-28T15:13:14;101823.00;;;10.70
9119;BMP180;4594;50.994;7.126;2023-02-28T15:16:02;101818.00;;;10.70
9119;BMP180;4594;50.994;7.126;2023-02-28T15:19:00;101813.00;;;10.60
9119;BMP180;4594;50.994;7.126;2023-02-28T15:21:33;101818.00;;;10.60
9119;BMP180;4594;50.994;7.126;2023-02-28T15:24:21;101809.00;;;10.60
9119;BMP180;4594;50.994;7.126;2023-02-28T15:26:58;101800.00;;;10.60
9119;BMP180;4594;50.994;7.126;2023-02-28T15:29:28;101805.00;;;10.60
9119;BMP180;4594;50.994;7.126;2023-02-28T15:32:06;101801.00;;;10.70
9119;BMP180;4594;50.994;7.126;2023-02-28T15:34:42;101809.00;;;10.70
9119;BMP180;4594;50.994;7.126;2023-02-28T15:40:57;101810.00;;;10.60
9119;BMP180;4594;50.994;7.126;2023-02-28T15:45:58;101804.00;;;10.60
9119;BMP180;4594;50.994;7.126;2023-02-28T15:51:17;101809.00;;;10.60
9119;BMP180;4594;50.994;7.126;2023-02-28T15:54:01;101813.00;;;10.50
9119;BMP180;4594;50.994;7.126;2023-02-28T15:56:34;101809.00;;;10.50
9119;BMP180;4594;50.994;7.126;2023-02-28T15:59:05;101805.00;;;10.50
9119;BMP180;4594;50.994;7.126;2023-02-28T16:01:37;101808.00;;;10.50
9119;BMP180;4594;50.994;7.126;2023-02-28T16:04:06;101800.00;;;10.50
9119;BMP180;4594;50.994;7.126;2023-02-28T16:06:44;101811.00;;;10.50
9119;BMP180;4594;50.994;7.126;2023-02-28T16:09:16;101807.00;;;10.50
9119;BMP180;4594;50.994;7.126;2023-02-28T16:11:51;101810.00;;;10.50
9119;BMP180;4594;50.994;7.126;2023-02-28T16:14:24;101823.00;;;10.50
9119;BMP180;4594;50.994;7.126;2023-02-28T16:16:55;101815.00;;;10.50
9119;BMP180;4594;50.994;7.126;2023-02-28T16:19:22;101820.00;;;10.40
9119;BMP180;4594;50.994;7.126;2023-02-28T16:21:49;101815.00;;;10.40
9119;BMP180;4594;50.994;7.126;2023-02-28T16:24:15;101817.00;;;10.40
9119;BMP180;4594;50.994;7.126;2023-02-28T16:26:44;101807.00;;;10.40
9119;BMP180;4594;50.994;7.126;2023-02-28T16:29:30;101816.00;;;10.40
9119;BMP180;4594;50.994;7.126;2023-02-28T16:31:57;101819.00;;;10.40
9119;BMP180;4594;50.994;7.126;2023-02-28T16:34:25;101823.00;;;10.40
9119;BMP180;4594;50.994;7.126;2023-02-28T16:36:51;101822.00;;;10.40
9119;BMP180;4594;50.994;7.126;2023-02-28T16:39:17;101825.00;;;10.30
9119;BMP180;4594;50.994;7.126;2023-02-28T16:41:48;101826.00;;;10.30
9119;BMP180;4594;50.994;7.126;2023-02-28T16:44:33;101835.00;;;10.30
9119;BMP180;4594;50.994;7.126;2023-02-28T16:47:03;101832.00;;;10.20
9119;BMP180;4594;50.994;7.126;2023-02-28T16:49:30;101840.00;;;10.20
9119;BMP180;4594;50.994;7.126;2023-02-28T16:51:56;101839.00;;;10.20
9119;BMP180;4594;50.994;7.126;2023-02-28T16:54:24;101840.00;;;10.10
9119;BMP180;4594;50.994;7.126;2023-02-28T16:56:50;101842.00;;;10.10
9119;BMP180;4594;50.994;7.126;2023-02-28T16:59:23;101846.00;;;10.10
9119;BMP180;4594;50.994;7.126;2023-02-28T17:01:51;101842.00;;;10.00
9119;BMP180;4594;50.994;7.126;2023-02-28T17:04:17;101851.00;;;10.00
9119;BMP180;4594;50.994;7.126;2023-02-28T17:06:46;101837.00;;;10.00
9119;BMP180;4594;50.994;7.126;2023-02-28T17:09:30;101870.00;;;9.90
9119;BMP180;4594;50.994;7.126;2023-02-28T17:11:56;101847.00;;;9.90